Disclaimer

Please do not use the information listed here in-flight or in-navigation, as they are not provided to us by the airports but are provided by volunteers, so they might be outdated.

Search


Regions


Airport information page

Radio informations:
VALENCE TWR - 120.1 MHz

Airport informations:
Latitude: 44° 55' 17.74" N
Longitude: 004° 58' 11.64" E
Elevation: 525 feet - 160 meters
Operating hours: Remarks
Operating agency: Military-civil joint use airport
Timezone: UTC+1(+2DT) - Last Sunday in March to last Sunday in October
Fuel: Jet A1, without icing nhibitor.

100/130 MIL Spec, low lead, aviation gasoline (BLUE)

Runway information:
01/19 - 6890 x 148 feet< - >2100 x 45 meters

Recent METARs:
LFLU 201800Z AUTO VRB03KT 9999 BKN046 BKN054 OVC072 06/04 Q1002
LFLU 201800Z AUTO VRB03KT 9999 BKN046 BKN054 OVC072 06/04 Q1002

Airport on the map: